KAVX Airport Information

Runway Information
Runway 04 Length 3000 ft width 60 ft
Elevation 1602 ft Threshold 120 ft Heading 54
Runway 22 Length 3000 ft Width 60 ft
Elevation 1602 ft Threshold 149 ft Heading 234
Airport Frequencies
Type A/D Name SOCAL APP/ Frequency 127.4 MHZ
Type UNIC Name CTAF/UNICO Frequency 122.7 MHZ
Airport Navaids
Airport Weather Information & NOTAM
ADDS - METARS form results

(1644 UTC 18 October 2018)
Data provider http://aviationweather.gov/metar/data/
 
METAR text: KAVX 181551Z AUTO 09005KT 10SM CLR 23/00 A3012 RMK AO2 SLP175 T02330000 $
Conditions at: KAVX (AVALON , CA, US) observed 1551 UTC 18 October 2018
Temperature: 23.3°C (74°F)
Dewpoint: 0.0°C (32°F) [RH = 21%]
Pressure (altimeter): 30.12 inches Hg (1020.1 mb)
[Sea-level pressure: 1017.5 mb]
Winds: from the E (90 degrees) at 6 MPH (5 knots; 2.6 m/s)
Visibility: 10 or more miles (16+ km)
Ceiling: at least 12,000 feet AGL
Clouds: sky clear below 12,000 feet AGL
Weather:
SOME DATA ABOVE MAY BE INACCURATE!!!
"$" is an indication the sensor requires maintenance